sensor_id;sensor_type;location;lat;lon;timestamp;temperature;humidity
23475;DHT22;11910;52.086;21.066;2024-02-04T00:00:44;7.80;99.90
23475;DHT22;11910;52.086;21.066;2024-02-04T00:03:10;7.80;99.90
23475;DHT22;11910;52.086;21.066;2024-02-04T00:05:35;7.70;99.90
23475;DHT22;11910;52.086;21.066;2024-02-04T00:08:01;7.70;99.90
23475;DHT22;11910;52.086;21.066;2024-02-04T00:10:27;7.60;99.90
23475;DHT22;11910;52.086;21.066;2024-02-04T00:12:53;7.60;99.90
23475;DHT22;11910;52.086;21.066;2024-02-04T00:15:19;7.60;99.90
23475;DHT22;11910;52.086;21.066;2024-02-04T00:17:44;7.60;99.90
23475;DHT22;11910;52.086;21.066;2024-02-04T00:20:10;7.60;99.90
23475;DHT22;11910;52.086;21.066;2024-02-04T00:22:36;7.50;99.90
23475;DHT22;11910;52.086;21.066;2024-02-04T00:25:02;7.60;99.90
23475;DHT22;11910;52.086;21.066;2024-02-04T00:27:33;7.60;99.90
23475;DHT22;11910;52.086;21.066;2024-02-04T00:29:59;7.60;99.90
23475;DHT22;11910;52.086;21.066;2024-02-04T00:32:25;7.60;99.90
23475;DHT22;11910;52.086;21.066;2024-02-04T00:34:52;7.60;99.90
23475;DHT22;11910;52.086;21.066;2024-02-04T00:37:18;7.60;99.90
23475;DHT22;11910;52.086;21.066;2024-02-04T00:39:44;7.50;99.90
23475;DHT22;11910;52.086;21.066;2024-02-04T00:42:09;7.40;99.90
23475;DHT22;11910;52.086;21.066;2024-02-04T00:44:36;7.40;99.90
23475;DHT22;11910;52.086;21.066;2024-02-04T00:47:01;7.30;99.90
23475;DHT22;11910;52.086;21.066;2024-02-04T00:49:28;7.40;99.90
23475;DHT22;11910;52.086;21.066;2024-02-04T00:51:54;7.30;99.90
23475;DHT22;11910;52.086;21.066;2024-02-04T00:54:19;7.30;99.90
23475;DHT22;11910;52.086;21.066;2024-02-04T00:56:45;7.30;99.90
23475;DHT22;11910;52.086;21.066;2024-02-04T00:59:11;7.20;99.90
23475;DHT22;11910;52.086;21.066;2024-02-04T01:01:37;7.20;99.90
23475;DHT22;11910;52.086;21.066;2024-02-04T01:04:03;7.20;99.90
23475;DHT22;11910;52.086;21.066;2024-02-04T01:06:29;7.20;99.90
23475;DHT22;11910;52.086;21.066;2024-02-04T01:08:56;7.20;99.90
23475;DHT22;11910;52.086;21.066;2024-02-04T01:11:22;7.30;99.90
23475;DHT22;11910;52.086;21.066;2024-02-04T01:13:48;7.30;99.90
23475;DHT22;11910;52.086;21.066;2024-02-04T01:16:13;7.40;99.90
23475;DHT22;11910;52.086;21.066;2024-02-04T01:18:39;7.30;99.90
23475;DHT22;11910;52.086;21.066;2024-02-04T01:21:05;7.30;99.90
23475;DHT22;11910;52.086;21.066;2024-02-04T01:23:30;7.20;99.90
23475;DHT22;11910;52.086;21.066;2024-02-04T01:25:56;7.30;99.90
23475;DHT22;11910;52.086;21.066;2024-02-04T01:28:21;7.20;99.90
23475;DHT22;11910;52.086;21.066;2024-02-04T01:30:47;7.20;99.90
23475;DHT22;11910;52.086;21.066;2024-02-04T01:33:13;7.10;99.90
23475;DHT22;11910;52.086;21.066;2024-02-04T01:35:38;7.10;99.90
23475;DHT22;11910;52.086;21.066;2024-02-04T01:38:04;7.10;99.90
23475;DHT22;11910;52.086;21.066;2024-02-04T01:40:30;7.10;99.90
23475;DHT22;11910;52.086;21.066;2024-02-04T01:42:56;7.10;99.90
23475;DHT22;11910;52.086;21.066;2024-02-04T01:45:21;7.20;99.90
23475;DHT22;11910;52.086;21.066;2024-02-04T01:47:47;7.20;99.90
23475;DHT22;11910;52.086;21.066;2024-02-04T01:50:13;7.20;99.90
23475;DHT22;11910;52.086;21.066;2024-02-04T01:52:40;7.30;99.90
23475;DHT22;11910;52.086;21.066;2024-02-04T01:55:07;7.30;99.90
23475;DHT22;11910;52.086;21.066;2024-02-04T01:57:33;7.30;99.90
23475;DHT22;11910;52.086;21.066;2024-02-04T02:00:03;7.20;99.90
23475;DHT22;11910;52.086;21.066;2024-02-04T02:02:30;7.30;99.90
23475;DHT22;11910;52.086;21.066;2024-02-04T02:04:57;7.30;99.90
23475;DHT22;11910;52.086;21.066;2024-02-04T02:07:23;7.30;99.90
23475;DHT22;11910;52.086;21.066;2024-02-04T02:09:53;7.30;99.90
23475;DHT22;11910;52.086;21.066;2024-02-04T02:12:25;7.40;99.90
23475;DHT22;11910;52.086;21.066;2024-02-04T02:15:10;7.40;99.90
23475;DHT22;11910;52.086;21.066;2024-02-04T02:17:47;7.40;99.90
23475;DHT22;11910;52.086;21.066;2024-02-04T02:20:41;7.40;99.90
23475;DHT22;11910;52.086;21.066;2024-02-04T02:23:22;7.40;99.90
23475;DHT22;11910;52.086;21.066;2024-02-04T02:25:47;7.50;99.90
23475;DHT22;11910;52.086;21.066;2024-02-04T02:28:14;7.50;99.90
23475;DHT22;11910;52.086;21.066;2024-02-04T02:30:40;7.50;99.90
23475;DHT22;11910;52.086;21.066;2024-02-04T02:33:06;7.50;99.90
23475;DHT22;11910;52.086;21.066;2024-02-04T02:35:34;7.50;99.90
23475;DHT22;11910;52.086;21.066;2024-02-04T02:38:20;7.60;99.90
23475;DHT22;11910;52.086;21.066;2024-02-04T02:40:51;7.60;99.90
23475;DHT22;11910;52.086;21.066;2024-02-04T02:43:19;7.60;99.90
23475;DHT22;11910;52.086;21.066;2024-02-04T02:45:45;7.60;99.90
23475;DHT22;11910;52.086;21.066;2024-02-04T02:48:11;7.60;99.90
23475;DHT22;11910;52.086;21.066;2024-02-04T02:50:38;7.60;99.90
23475;DHT22;11910;52.086;21.066;2024-02-04T02:53:04;7.60;99.90
23475;DHT22;11910;52.086;21.066;2024-02-04T02:55:30;7.60;99.90
23475;DHT22;11910;52.086;21.066;2024-02-04T02:57:55;7.60;99.90
23475;DHT22;11910;52.086;21.066;2024-02-04T03:00:47;7.50;99.90
23475;DHT22;11910;52.086;21.066;2024-02-04T03:03:13;7.60;99.90
23475;DHT22;11910;52.086;21.066;2024-02-04T03:05:39;7.60;99.90
23475;DHT22;11910;52.086;21.066;2024-02-04T03:08:05;7.60;99.90
23475;DHT22;11910;52.086;21.066;2024-02-04T03:10:31;7.60;99.90
23475;DHT22;11910;52.086;21.066;2024-02-04T03:12:56;7.60;99.90
23475;DHT22;11910;52.086;21.066;2024-02-04T03:15:22;7.60;99.90
23475;DHT22;11910;52.086;21.066;2024-02-04T03:17:47;7.60;99.90
23475;DHT22;11910;52.086;21.066;2024-02-04T03:20:13;7.60;99.90
23475;DHT22;11910;52.086;21.066;2024-02-04T03:22:38;7.60;99.90
23475;DHT22;11910;52.086;21.066;2024-02-04T03:25:04;7.60;99.90
23475;DHT22;11910;52.086;21.066;2024-02-04T03:27:30;7.60;99.90
23475;DHT22;11910;52.086;21.066;2024-02-04T03:29:56;7.60;99.90
23475;DHT22;11910;52.086;21.066;2024-02-04T03:32:21;7.60;99.90
23475;DHT22;11910;52.086;21.066;2024-02-04T03:34:47;7.60;99.90
23475;DHT22;11910;52.086;21.066;2024-02-04T03:37:12;7.60;99.90
23475;DHT22;11910;52.086;21.066;2024-02-04T03:39:38;7.60;99.90
23475;DHT22;11910;52.086;21.066;2024-02-04T03:42:04;7.50;99.90
23475;DHT22;11910;52.086;21.066;2024-02-04T03:44:29;7.60;99.90
23475;DHT22;11910;52.086;21.066;2024-02-04T03:46:55;7.60;99.90
23475;DHT22;11910;52.086;21.066;2024-02-04T03:49:21;7.60;99.90
23475;DHT22;11910;52.086;21.066;2024-02-04T03:51:46;7.60;99.90
23475;DHT22;11910;52.086;21.066;2024-02-04T03:54:12;7.60;99.90
23475;DHT22;11910;52.086;21.066;2024-02-04T03:56:38;7.60;99.90
23475;DHT22;11910;52.086;21.066;2024-02-04T03:59:04;7.60;99.90
23475;DHT22;11910;52.086;21.066;2024-02-04T04:01:30;7.50;99.90
23475;DHT22;11910;52.086;21.066;2024-02-04T04:03:55;7.50;99.90
23475;DHT22;11910;52.086;21.066;2024-02-04T04:06:21;7.50;99.90
23475;DHT22;11910;52.086;21.066;2024-02-04T04:08:46;7.50;99.90
23475;DHT22;11910;52.086;21.066;2024-02-04T04:11:12;7.50;99.90
23475;DHT22;11910;52.086;21.066;2024-02-04T04:13:38;7.50;99.90
23475;DHT22;11910;52.086;21.066;2024-02-04T04:16:04;7.50;99.90
23475;DHT22;11910;52.086;21.066;2024-02-04T04:18:30;7.50;99.90
23475;DHT22;11910;52.086;21.066;2024-02-04T04:20:56;7.50;99.90
23475;DHT22;11910;52.086;21.066;2024-02-04T04:23:22;7.50;99.90
23475;DHT22;11910;52.086;21.066;2024-02-04T04:25:47;7.50;99.90
23475;DHT22;11910;52.086;21.066;2024-02-04T04:28:13;7.50;99.90
23475;DHT22;11910;52.086;21.066;2024-02-04T04:30:38;7.50;99.90
23475;DHT22;11910;52.086;21.066;2024-02-04T04:33:04;7.50;99.90
23475;DHT22;11910;52.086;21.066;2024-02-04T04:35:30;7.50;99.90
23475;DHT22;11910;52.086;21.066;2024-02-04T04:37:55;7.50;99.90
23475;DHT22;11910;52.086;21.066;2024-02-04T04:40:21;7.50;99.90
23475;DHT22;11910;52.086;21.066;2024-02-04T04:42:46;7.50;99.90
23475;DHT22;11910;52.086;21.066;2024-02-04T04:45:12;7.30;99.90
23475;DHT22;11910;52.086;21.066;2024-02-04T04:47:39;6.90;99.90
23475;DHT22;11910;52.086;21.066;2024-02-04T04:50:05;6.60;99.90
23475;DHT22;11910;52.086;21.066;2024-02-04T04:52:31;6.30;99.90
23475;DHT22;11910;52.086;21.066;2024-02-04T04:54:57;6.20;99.90
23475;DHT22;11910;52.086;21.066;2024-02-04T04:57:22;6.10;99.90
23475;DHT22;11910;52.086;21.066;2024-02-04T04:59:48;6.00;99.90
23475;DHT22;11910;52.086;21.066;2024-02-04T05:05:00;6.00;99.90
23475;DHT22;11910;52.086;21.066;2024-02-04T05:07:25;5.90;99.90
23475;DHT22;11910;52.086;21.066;2024-02-04T05:09:51;5.90;99.90
23475;DHT22;11910;52.086;21.066;2024-02-04T05:12:17;5.90;99.90
23475;DHT22;11910;52.086;21.066;2024-02-04T05:14:43;5.90;99.90
23475;DHT22;11910;52.086;21.066;2024-02-04T05:17:09;6.00;99.90
23475;DHT22;11910;52.086;21.066;2024-02-04T05:19:35;6.10;99.90
23475;DHT22;11910;52.086;21.066;2024-02-04T05:22:01;6.20;99.90
23475;DHT22;11910;52.086;21.066;2024-02-04T05:24:26;6.20;99.90
23475;DHT22;11910;52.086;21.066;2024-02-04T05:26:52;6.30;99.90
23475;DHT22;11910;52.086;21.066;2024-02-04T05:29:17;6.30;99.90
23475;DHT22;11910;52.086;21.066;2024-02-04T05:31:43;6.30;99.90
23475;DHT22;11910;52.086;21.066;2024-02-04T05:34:10;6.30;99.90
23475;DHT22;11910;52.086;21.066;2024-02-04T05:36:35;6.40;99.90
23475;DHT22;11910;52.086;21.066;2024-02-04T05:41:37;6.40;99.90
23475;DHT22;11910;52.086;21.066;2024-02-04T05:44:02;6.30;99.90
23475;DHT22;11910;52.086;21.066;2024-02-04T05:46:28;6.30;99.90
23475;DHT22;11910;52.086;21.066;2024-02-04T05:48:54;6.30;99.90
23475;DHT22;11910;52.086;21.066;2024-02-04T05:51:19;6.20;99.90
23475;DHT22;11910;52.086;21.066;2024-02-04T05:53:45;6.20;99.90
23475;DHT22;11910;52.086;21.066;2024-02-04T05:56:11;6.20;99.90
23475;DHT22;11910;52.086;21.066;2024-02-04T05:58:37;6.10;99.90
23475;DHT22;11910;52.086;21.066;2024-02-04T06:01:03;6.10;99.90
23475;DHT22;11910;52.086;21.066;2024-02-04T06:03:29;6.10;99.90
23475;DHT22;11910;52.086;21.066;2024-02-04T06:05:54;6.10;99.90
23475;DHT22;11910;52.086;21.066;2024-02-04T06:08:20;6.10;99.90
23475;DHT22;11910;52.086;21.066;2024-02-04T06:10:45;6.00;99.90
23475;DHT22;11910;52.086;21.066;2024-02-04T06:13:11;6.10;99.90
23475;DHT22;11910;52.086;21.066;2024-02-04T06:15:37;6.00;99.90
23475;DHT22;11910;52.086;21.066;2024-02-04T06:18:03;6.00;99.90
23475;DHT22;11910;52.086;21.066;2024-02-04T06:20:29;6.00;99.90
23475;DHT22;11910;52.086;21.066;2024-02-04T06:22:54;6.00;99.90
23475;DHT22;11910;52.086;21.066;2024-02-04T06:25:21;6.00;99.90
23475;DHT22;11910;52.086;21.066;2024-02-04T06:27:46;6.00;99.90
23475;DHT22;11910;52.086;21.066;2024-02-04T06:30:12;6.00;99.90
23475;DHT22;11910;52.086;21.066;2024-02-04T06:32:38;6.00;99.90
23475;DHT22;11910;52.086;21.066;2024-02-04T06:35:04;6.00;99.90
23475;DHT22;11910;52.086;21.066;2024-02-04T06:37:30;6.00;99.90
23475;DHT22;11910;52.086;21.066;2024-02-04T06:39:55;6.00;99.90
23475;DHT22;11910;52.086;21.066;2024-02-04T06:42:21;6.00;99.90
23475;DHT22;11910;52.086;21.066;2024-02-04T06:44:46;6.00;99.90
23475;DHT22;11910;52.086;21.066;2024-02-04T06:47:12;6.00;99.90
23475;DHT22;11910;52.086;21.066;2024-02-04T06:49:39;6.00;99.90
23475;DHT22;11910;52.086;21.066;2024-02-04T06:52:05;6.00;99.90
23475;DHT22;11910;52.086;21.066;2024-02-04T06:54:31;6.10;99.90
23475;DHT22;11910;52.086;21.066;2024-02-04T06:56:56;6.10;99.90
23475;DHT22;11910;52.086;21.066;2024-02-04T06:59:22;6.10;99.90
23475;DHT22;11910;52.086;21.066;2024-02-04T07:01:48;6.20;99.90
23475;DHT22;11910;52.086;21.066;2024-02-04T07:04:14;6.10;99.90
23475;DHT22;11910;52.086;21.066;2024-02-04T07:06:39;6.10;99.90
23475;DHT22;11910;52.086;21.066;2024-02-04T07:09:05;6.20;99.90
23475;DHT22;11910;52.086;21.066;2024-02-04T07:11:31;6.20;99.90
23475;DHT22;11910;52.086;21.066;2024-02-04T07:13:57;6.20;99.90
23475;DHT22;11910;52.086;21.066;2024-02-04T07:16:26;6.20;99.90
23475;DHT22;11910;52.086;21.066;2024-02-04T07:18:51;6.30;99.90
23475;DHT22;11910;52.086;21.066;2024-02-04T07:21:17;6.30;99.90
23475;DHT22;11910;52.086;21.066;2024-02-04T07:23:43;6.30;99.90
23475;DHT22;11910;52.086;21.066;2024-02-04T07:26:09;6.40;99.90
23475;DHT22;11910;52.086;21.066;2024-02-04T07:28:35;6.40;99.90
23475;DHT22;11910;52.086;21.066;2024-02-04T07:31:00;6.40;99.90
23475;DHT22;11910;52.086;21.066;2024-02-04T07:33:26;6.50;99.90
23475;DHT22;11910;52.086;21.066;2024-02-04T07:35:52;6.50;99.90
23475;DHT22;11910;52.086;21.066;2024-02-04T07:38:18;6.50;99.90
23475;DHT22;11910;52.086;21.066;2024-02-04T07:40:43;6.60;99.90
23475;DHT22;11910;52.086;21.066;2024-02-04T07:43:09;6.50;99.90
23475;DHT22;11910;52.086;21.066;2024-02-04T07:45:35;6.60;99.90
23475;DHT22;11910;52.086;21.066;2024-02-04T07:48:00;6.60;99.90
23475;DHT22;11910;52.086;21.066;2024-02-04T07:50:27;6.60;99.90
23475;DHT22;11910;52.086;21.066;2024-02-04T07:52:53;6.60;99.90
23475;DHT22;11910;52.086;21.066;2024-02-04T07:55:19;6.70;99.90
23475;DHT22;11910;52.086;21.066;2024-02-04T07:57:44;6.70;99.90
23475;DHT22;11910;52.086;21.066;2024-02-04T08:00:10;6.70;99.90
23475;DHT22;11910;52.086;21.066;2024-02-04T08:02:36;6.80;99.90
23475;DHT22;11910;52.086;21.066;2024-02-04T08:05:05;6.90;99.90
23475;DHT22;11910;52.086;21.066;2024-02-04T08:07:34;6.90;99.90
23475;DHT22;11910;52.086;21.066;2024-02-04T08:10:09;7.00;99.90
23475;DHT22;11910;52.086;21.066;2024-02-04T08:12:34;7.00;99.90
23475;DHT22;11910;52.086;21.066;2024-02-04T08:15:04;7.00;99.90
23475;DHT22;11910;52.086;21.066;2024-02-04T08:17:32;7.00;99.90
23475;DHT22;11910;52.086;21.066;2024-02-04T08:19:59;6.90;99.90
23475;DHT22;11910;52.086;21.066;2024-02-04T08:22:24;6.90;99.90
23475;DHT22;11910;52.086;21.066;2024-02-04T08:24:50;6.90;99.90
23475;DHT22;11910;52.086;21.066;2024-02-04T08:27:16;6.90;99.90
23475;DHT22;11910;52.086;21.066;2024-02-04T08:29:43;7.00;99.90
23475;DHT22;11910;52.086;21.066;2024-02-04T08:32:09;6.90;99.90
23475;DHT22;11910;52.086;21.066;2024-02-04T08:34:52;7.00;99.90
23475;DHT22;11910;52.086;21.066;2024-02-04T08:37:20;7.00;99.90
23475;DHT22;11910;52.086;21.066;2024-02-04T08:39:48;7.10;99.90
23475;DHT22;11910;52.086;21.066;2024-02-04T08:42:15;7.10;99.90
23475;DHT22;11910;52.086;21.066;2024-02-04T08:44:52;7.20;99.90
23475;DHT22;11910;52.086;21.066;2024-02-04T08:47:35;7.10;99.90
23475;DHT22;11910;52.086;21.066;2024-02-04T08:50:01;7.20;99.90
23475;DHT22;11910;52.086;21.066;2024-02-04T08:52:29;7.10;99.90
23475;DHT22;11910;52.086;21.066;2024-02-04T08:54:57;7.10;99.90
23475;DHT22;11910;52.086;21.066;2024-02-04T08:57:24;7.10;99.90
23475;DHT22;11910;52.086;21.066;2024-02-04T08:59:49;7.10;99.90
23475;DHT22;11910;52.086;21.066;2024-02-04T09:02:18;7.10;99.90
23475;DHT22;11910;52.086;21.066;2024-02-04T09:07:51;7.10;99.90
23475;DHT22;11910;52.086;21.066;2024-02-04T09:10:37;7.10;99.90
23475;DHT22;11910;52.086;21.066;2024-02-04T09:15:50;7.20;99.90
23475;DHT22;11910;52.086;21.066;2024-02-04T09:18:18;7.10;99.90
23475;DHT22;11910;52.086;21.066;2024-02-04T09:20:44;7.20;99.90
23475;DHT22;11910;52.086;21.066;2024-02-04T09:23:12;7.10;99.90
23475;DHT22;11910;52.086;21.066;2024-02-04T09:25:38;7.10;99.90
23475;DHT22;11910;52.086;21.066;2024-02-04T09:28:04;7.20;99.90
23475;DHT22;11910;52.086;21.066;2024-02-04T09:30:29;7.20;99.90
23475;DHT22;11910;52.086;21.066;2024-02-04T09:32:55;7.20;99.90
23475;DHT22;11910;52.086;21.066;2024-02-04T09:35:21;7.30;99.90
23475;DHT22;11910;52.086;21.066;2024-02-04T09:37:46;7.20;99.90
23475;DHT22;11910;52.086;21.066;2024-02-04T09:40:12;7.30;99.90
23475;DHT22;11910;52.086;21.066;2024-02-04T09:42:38;7.30;99.90
23475;DHT22;11910;52.086;21.066;2024-02-04T09:45:04;7.40;99.90
23475;DHT22;11910;52.086;21.066;2024-02-04T09:47:32;7.40;99.90
23475;DHT22;11910;52.086;21.066;2024-02-04T09:50:00;7.50;99.90
23475;DHT22;11910;52.086;21.066;2024-02-04T09:52:39;7.60;99.90
23475;DHT22;11910;52.086;21.066;2024-02-04T09:55:07;7.50;99.90
23475;DHT22;11910;52.086;21.066;2024-02-04T09:57:35;7.60;99.90
23475;DHT22;11910;52.086;21.066;2024-02-04T10:00:03;7.60;99.90
23475;DHT22;11910;52.086;21.066;2024-02-04T10:02:34;7.60;99.90
23475;DHT22;11910;52.086;21.066;2024-02-04T10:04:59;7.60;99.90
23475;DHT22;11910;52.086;21.066;2024-02-04T10:07:25;7.60;99.90
23475;DHT22;11910;52.086;21.066;2024-02-04T10:09:51;7.50;99.90
23475;DHT22;11910;52.086;21.066;2024-02-04T10:12:17;7.50;99.90
23475;DHT22;11910;52.086;21.066;2024-02-04T10:14:42;7.50;99.90
23475;DHT22;11910;52.086;21.066;2024-02-04T10:17:08;7.50;99.90
23475;DHT22;11910;52.086;21.066;2024-02-04T10:19:34;7.50;99.90
23475;DHT22;11910;52.086;21.066;2024-02-04T10:22:00;7.50;99.90
23475;DHT22;11910;52.086;21.066;2024-02-04T10:24:27;7.50;99.90
23475;DHT22;11910;52.086;21.066;2024-02-04T10:26:56;7.50;99.90
23475;DHT22;11910;52.086;21.066;2024-02-04T10:29:23;7.40;99.90
23475;DHT22;11910;52.086;21.066;2024-02-04T10:31:53;7.40;99.90
23475;DHT22;11910;52.086;21.066;2024-02-04T10:34:19;7.50;99.90
23475;DHT22;11910;52.086;21.066;2024-02-04T10:36:45;7.40;99.90
23475;DHT22;11910;52.086;21.066;2024-02-04T10:39:10;7.40;99.90
23475;DHT22;11910;52.086;21.066;2024-02-04T10:41:44;7.50;99.90
23475;DHT22;11910;52.086;21.066;2024-02-04T10:44:16;7.50;99.90
23475;DHT22;11910;52.086;21.066;2024-02-04T10:46:42;7.60;99.90
23475;DHT22;11910;52.086;21.066;2024-02-04T10:49:13;7.60;99.90
23475;DHT22;11910;52.086;21.066;2024-02-04T10:51:39;7.60;99.90
23475;DHT22;11910;52.086;21.066;2024-02-04T10:54:10;7.60;99.90
23475;DHT22;11910;52.086;21.066;2024-02-04T10:56:37;7.60;99.90
23475;DHT22;11910;52.086;21.066;2024-02-04T10:59:03;7.60;99.90
23475;DHT22;11910;52.086;21.066;2024-02-04T11:01:29;7.60;99.90
23475;DHT22;11910;52.086;21.066;2024-02-04T11:03:56;7.60;99.90
23475;DHT22;11910;52.086;21.066;2024-02-04T11:06:23;7.60;99.90
23475;DHT22;11910;52.086;21.066;2024-02-04T11:08:51;7.60;99.90
23475;DHT22;11910;52.086;21.066;2024-02-04T11:11:18;7.60;99.90
23475;DHT22;11910;52.086;21.066;2024-02-04T11:13:45;7.60;99.90
23475;DHT22;11910;52.086;21.066;2024-02-04T11:27:25;7.40;99.90
23475;DHT22;11910;52.086;21.066;2024-02-04T11:29:51;7.40;99.90
23475;DHT22;11910;52.086;21.066;2024-02-04T11:32:17;7.40;99.90
23475;DHT22;11910;52.086;21.066;2024-02-04T11:34:46;7.40;99.90
23475;DHT22;11910;52.086;21.066;2024-02-04T11:37:18;7.40;99.90
23475;DHT22;11910;52.086;21.066;2024-02-04T11:39:51;7.40;99.90
23475;DHT22;11910;52.086;21.066;2024-02-04T11:42:18;7.30;99.90
23475;DHT22;11910;52.086;21.066;2024-02-04T11:44:44;7.30;99.90
23475;DHT22;11910;52.086;21.066;2024-02-04T11:47:10;7.20;99.90
23475;DHT22;11910;52.086;21.066;2024-02-04T11:49:36;7.20;99.90
23475;DHT22;11910;52.086;21.066;2024-02-04T11:52:02;7.10;99.90
23475;DHT22;11910;52.086;21.066;2024-02-04T11:54:29;7.10;99.90
23475;DHT22;11910;52.086;21.066;2024-02-04T11:56:55;7.10;99.90
23475;DHT22;11910;52.086;21.066;2024-02-04T11:59:24;7.10;99.90
23475;DHT22;11910;52.086;21.066;2024-02-04T12:01:54;7.10;99.90
23475;DHT22;11910;52.086;21.066;2024-02-04T12:04:20;7.10;99.90
23475;DHT22;11910;52.086;21.066;2024-02-04T12:06:47;7.10;99.90
23475;DHT22;11910;52.086;21.066;2024-02-04T12:09:16;7.10;99.90
23475;DHT22;11910;52.086;21.066;2024-02-04T12:11:44;7.10;99.90
23475;DHT22;11910;52.086;21.066;2024-02-04T12:14:10;7.10;99.90
23475;DHT22;11910;52.086;21.066;2024-02-04T12:16:36;7.10;99.90
23475;DHT22;11910;52.086;21.066;2024-02-04T12:19:04;7.10;99.90
23475;DHT22;11910;52.086;21.066;2024-02-04T12:21:30;7.10;99.90
23475;DHT22;11910;52.086;21.066;2024-02-04T12:23:56;7.10;99.90
23475;DHT22;11910;52.086;21.066;2024-02-04T12:26:43;7.20;99.90
23475;DHT22;11910;52.086;21.066;2024-02-04T12:29:17;7.30;99.90
23475;DHT22;11910;52.086;21.066;2024-02-04T12:31:42;7.30;99.90
23475;DHT22;11910;52.086;21.066;2024-02-04T12:34:08;7.20;99.90
23475;DHT22;11910;52.086;21.066;2024-02-04T12:36:34;7.20;99.90
23475;DHT22;11910;52.086;21.066;2024-02-04T12:39:01;7.20;99.90
23475;DHT22;11910;52.086;21.066;2024-02-04T12:41:27;7.20;99.90
23475;DHT22;11910;52.086;21.066;2024-02-04T12:43:57;7.20;99.90
23475;DHT22;11910;52.086;21.066;2024-02-04T12:46:27;7.30;99.90
23475;DHT22;11910;52.086;21.066;2024-02-04T12:48:59;7.40;99.90
23475;DHT22;11910;52.086;21.066;2024-02-04T12:51:30;7.30;99.90
23475;DHT22;11910;52.086;21.066;2024-02-04T12:56:40;7.40;99.90
23475;DHT22;11910;52.086;21.066;2024-02-04T12:59:05;7.30;99.90
23475;DHT22;11910;52.086;21.066;2024-02-04T13:01:31;7.40;99.90
23475;DHT22;11910;52.086;21.066;2024-02-04T13:03:56;7.30;99.90
23475;DHT22;11910;52.086;21.066;2024-02-04T13:06:22;7.30;99.90
23475;DHT22;11910;52.086;21.066;2024-02-04T13:08:48;7.30;99.90
23475;DHT22;11910;52.086;21.066;2024-02-04T13:11:19;7.30;99.90
23475;DHT22;11910;52.086;21.066;2024-02-04T13:13:45;7.30;99.90
23475;DHT22;11910;52.086;21.066;2024-02-04T13:16:11;7.30;99.90
23475;DHT22;11910;52.086;21.066;2024-02-04T13:18:36;7.20;99.90
23475;DHT22;11910;52.086;21.066;2024-02-04T13:21:02;7.20;99.90
23475;DHT22;11910;52.086;21.066;2024-02-04T13:23:28;7.10;99.90
23475;DHT22;11910;52.086;21.066;2024-02-04T13:25:54;7.20;99.90
23475;DHT22;11910;52.086;21.066;2024-02-04T13:28:19;7.10;99.90
23475;DHT22;11910;52.086;21.066;2024-02-04T13:30:45;7.10;99.90
23475;DHT22;11910;52.086;21.066;2024-02-04T13:33:11;7.10;99.90
23475;DHT22;11910;52.086;21.066;2024-02-04T13:35:36;7.10;99.90
23475;DHT22;11910;52.086;21.066;2024-02-04T13:38:02;7.10;99.90
23475;DHT22;11910;52.086;21.066;2024-02-04T13:40:27;7.00;99.90
23475;DHT22;11910;52.086;21.066;2024-02-04T13:42:53;7.00;99.90
23475;DHT22;11910;52.086;21.066;2024-02-04T13:45:19;7.00;99.90
23475;DHT22;11910;52.086;21.066;2024-02-04T13:47:45;7.00;99.90
23475;DHT22;11910;52.086;21.066;2024-02-04T13:50:11;7.00;99.90
23475;DHT22;11910;52.086;21.066;2024-02-04T13:52:38;7.00;99.90
23475;DHT22;11910;52.086;21.066;2024-02-04T13:55:04;7.00;99.90
23475;DHT22;11910;52.086;21.066;2024-02-04T13:57:33;6.90;99.90
23475;DHT22;11910;52.086;21.066;2024-02-04T13:59:59;6.90;99.90
23475;DHT22;11910;52.086;21.066;2024-02-04T14:02:50;6.90;99.90
23475;DHT22;11910;52.086;21.066;2024-02-04T14:05:15;6.90;99.90
23475;DHT22;11910;52.086;21.066;2024-02-04T14:07:41;6.90;99.90
23475;DHT22;11910;52.086;21.066;2024-02-04T14:10:07;7.00;99.90
23475;DHT22;11910;52.086;21.066;2024-02-04T14:12:34;7.00;99.90
23475;DHT22;11910;52.086;21.066;2024-02-04T14:14:59;6.90;99.90
23475;DHT22;11910;52.086;21.066;2024-02-04T14:17:25;7.00;99.90
23475;DHT22;11910;52.086;21.066;2024-02-04T14:19:51;7.00;99.90
23475;DHT22;11910;52.086;21.066;2024-02-04T14:22:17;7.00;99.90
23475;DHT22;11910;52.086;21.066;2024-02-04T14:24:43;7.00;99.90
23475;DHT22;11910;52.086;21.066;2024-02-04T14:27:11;7.00;99.90
23475;DHT22;11910;52.086;21.066;2024-02-04T14:29:36;7.00;99.90
23475;DHT22;11910;52.086;21.066;2024-02-04T14:32:02;7.00;99.90
23475;DHT22;11910;52.086;21.066;2024-02-04T14:34:28;7.10;99.90
23475;DHT22;11910;52.086;21.066;2024-02-04T14:36:54;7.10;99.90
23475;DHT22;11910;52.086;21.066;2024-02-04T14:39:19;7.20;99.90
23475;DHT22;11910;52.086;21.066;2024-02-04T14:41:45;7.20;99.90
23475;DHT22;11910;52.086;21.066;2024-02-04T14:44:11;7.20;99.90
23475;DHT22;11910;52.086;21.066;2024-02-04T14:46:38;7.20;99.90
23475;DHT22;11910;52.086;21.066;2024-02-04T14:49:03;7.30;99.90
23475;DHT22;11910;52.086;21.066;2024-02-04T14:51:29;7.30;99.90
23475;DHT22;11910;52.086;21.066;2024-02-04T14:53:57;7.40;99.90
23475;DHT22;11910;52.086;21.066;2024-02-04T14:56:23;7.40;99.90
23475;DHT22;11910;52.086;21.066;2024-02-04T14:58:49;7.40;99.90
23475;DHT22;11910;52.086;21.066;2024-02-04T15:01:15;7.40;99.90
23475;DHT22;11910;52.086;21.066;2024-02-04T15:03:41;7.50;99.90
23475;DHT22;11910;52.086;21.066;2024-02-04T15:06:06;7.50;99.90
23475;DHT22;11910;52.086;21.066;2024-02-04T15:08:32;7.50;99.90
23475;DHT22;11910;52.086;21.066;2024-02-04T15:10:58;7.50;99.90
23475;DHT22;11910;52.086;21.066;2024-02-04T15:13:24;7.50;99.90
23475;DHT22;11910;52.086;21.066;2024-02-04T15:15:49;7.50;99.90
23475;DHT22;11910;52.086;21.066;2024-02-04T15:18:15;7.50;99.90
23475;DHT22;11910;52.086;21.066;2024-02-04T15:20:41;7.50;99.90
23475;DHT22;11910;52.086;21.066;2024-02-04T15:23:07;7.50;99.90
23475;DHT22;11910;52.086;21.066;2024-02-04T15:25:33;7.60;99.90
23475;DHT22;11910;52.086;21.066;2024-02-04T15:27:59;7.60;99.90
23475;DHT22;11910;52.086;21.066;2024-02-04T15:30:25;7.60;99.90
23475;DHT22;11910;52.086;21.066;2024-02-04T15:32:51;7.60;99.90
23475;DHT22;11910;52.086;21.066;2024-02-04T15:35:18;7.60;99.90
23475;DHT22;11910;52.086;21.066;2024-02-04T15:37:44;7.60;99.90
23475;DHT22;11910;52.086;21.066;2024-02-04T15:40:12;7.60;99.90
23475;DHT22;11910;52.086;21.066;2024-02-04T15:42:38;7.60;99.90
23475;DHT22;11910;52.086;21.066;2024-02-04T15:45:04;7.60;99.90
23475;DHT22;11910;52.086;21.066;2024-02-04T15:47:30;7.60;99.90
23475;DHT22;11910;52.086;21.066;2024-02-04T15:49:58;7.60;99.90
23475;DHT22;11910;52.086;21.066;2024-02-04T15:52:23;7.70;99.90